sensor_id;sensor_type;location;lat;lon;timestamp;temperature;humidity
66328;DHT22;53133;52.862;6.602;2022-08-19T00:02:05;17.20;99.90
66328;DHT22;53133;52.862;6.602;2022-08-19T00:04:33;17.20;99.90
66328;DHT22;53133;52.862;6.602;2022-08-19T00:07:03;17.20;99.90
66328;DHT22;53133;52.862;6.602;2022-08-19T00:09:29;17.20;99.90
66328;DHT22;53133;52.862;6.602;2022-08-19T00:11:56;17.20;99.90
66328;DHT22;53133;52.862;6.602;2022-08-19T00:14:24;17.10;99.90
66328;DHT22;53133;52.862;6.602;2022-08-19T00:16:50;17.10;99.90
66328;DHT22;53133;52.862;6.602;2022-08-19T00:19:19;17.10;99.90
66328;DHT22;53133;52.862;6.602;2022-08-19T00:21:45;17.10;99.90
66328;DHT22;53133;52.862;6.602;2022-08-19T00:24:12;17.00;99.90
66328;DHT22;53133;52.862;6.602;2022-08-19T00:26:40;17.00;99.90
66328;DHT22;53133;52.862;6.602;2022-08-19T00:29:07;17.00;99.90
66328;DHT22;53133;52.862;6.602;2022-08-19T00:31:33;17.00;99.90
66328;DHT22;53133;52.862;6.602;2022-08-19T00:33:58;16.90;99.90
66328;DHT22;53133;52.862;6.602;2022-08-19T00:36:24;16.90;99.90
66328;DHT22;53133;52.862;6.602;2022-08-19T00:38:50;16.90;99.90
66328;DHT22;53133;52.862;6.602;2022-08-19T00:41:18;16.90;99.90
66328;DHT22;53133;52.862;6.602;2022-08-19T00:44:11;16.90;99.90
66328;DHT22;53133;52.862;6.602;2022-08-19T00:46:39;16.90;99.90
66328;DHT22;53133;52.862;6.602;2022-08-19T00:49:15;16.80;99.90
66328;DHT22;53133;52.862;6.602;2022-08-19T00:51:43;16.80;99.90
66328;DHT22;53133;52.862;6.602;2022-08-19T00:54:10;16.80;99.90
66328;DHT22;53133;52.862;6.602;2022-08-19T00:56:36;16.80;99.90
66328;DHT22;53133;52.862;6.602;2022-08-19T00:59:03;16.70;99.90
66328;DHT22;53133;52.862;6.602;2022-08-19T01:01:40;16.70;99.90
66328;DHT22;53133;52.862;6.602;2022-08-19T01:04:06;16.70;99.90
66328;DHT22;53133;52.862;6.602;2022-08-19T01:06:32;16.70;99.90
66328;DHT22;53133;52.862;6.602;2022-08-19T01:08:59;16.60;99.90
66328;DHT22;53133;52.862;6.602;2022-08-19T01:11:27;16.60;99.90
66328;DHT22;53133;52.862;6.602;2022-08-19T01:13:53;16.60;99.90
66328;DHT22;53133;52.862;6.602;2022-08-19T01:16:21;16.60;99.90
66328;DHT22;53133;52.862;6.602;2022-08-19T01:18:48;16.60;99.90
66328;DHT22;53133;52.862;6.602;2022-08-19T01:21:54;16.50;99.90
66328;DHT22;53133;52.862;6.602;2022-08-19T01:24:20;16.50;99.90
66328;DHT22;53133;52.862;6.602;2022-08-19T01:26:46;16.50;99.90
66328;DHT22;53133;52.862;6.602;2022-08-19T01:29:12;16.50;99.90
66328;DHT22;53133;52.862;6.602;2022-08-19T01:31:39;16.40;99.90
66328;DHT22;53133;52.862;6.602;2022-08-19T01:34:06;16.40;99.90
66328;DHT22;53133;52.862;6.602;2022-08-19T01:36:37;16.40;99.90
66328;DHT22;53133;52.862;6.602;2022-08-19T01:39:07;16.40;99.90
66328;DHT22;53133;52.862;6.602;2022-08-19T01:41:34;16.40;99.90
66328;DHT22;53133;52.862;6.602;2022-08-19T01:44:00;16.30;99.90
66328;DHT22;53133;52.862;6.602;2022-08-19T01:46:29;16.30;99.90
66328;DHT22;53133;52.862;6.602;2022-08-19T01:48:55;16.30;99.90
66328;DHT22;53133;52.862;6.602;2022-08-19T01:51:20;16.30;99.90
66328;DHT22;53133;52.862;6.602;2022-08-19T01:53:51;16.30;99.90
66328;DHT22;53133;52.862;6.602;2022-08-19T01:56:17;16.30;99.90
66328;DHT22;53133;52.862;6.602;2022-08-19T01:59:05;16.30;99.90
66328;DHT22;53133;52.862;6.602;2022-08-19T02:01:31;16.20;99.90
66328;DHT22;53133;52.862;6.602;2022-08-19T02:03:58;16.20;99.90
66328;DHT22;53133;52.862;6.602;2022-08-19T02:06:26;16.10;99.90
66328;DHT22;53133;52.862;6.602;2022-08-19T02:08:51;16.20;99.90
66328;DHT22;53133;52.862;6.602;2022-08-19T02:11:23;16.20;99.90
66328;DHT22;53133;52.862;6.602;2022-08-19T02:13:51;16.20;99.90
66328;DHT22;53133;52.862;6.602;2022-08-19T02:16:18;16.10;99.90
66328;DHT22;53133;52.862;6.602;2022-08-19T02:18:44;16.10;99.90
66328;DHT22;53133;52.862;6.602;2022-08-19T02:21:10;16.10;99.90
66328;DHT22;53133;52.862;6.602;2022-08-19T02:23:36;16.00;99.90
66328;DHT22;53133;52.862;6.602;2022-08-19T02:26:02;16.10;99.90
66328;DHT22;53133;52.862;6.602;2022-08-19T02:28:27;16.00;99.90
66328;DHT22;53133;52.862;6.602;2022-08-19T02:30:53;16.00;99.90
66328;DHT22;53133;52.862;6.602;2022-08-19T02:33:18;16.00;99.90
66328;DHT22;53133;52.862;6.602;2022-08-19T02:35:45;16.00;99.90
66328;DHT22;53133;52.862;6.602;2022-08-19T02:38:11;16.00;99.90
66328;DHT22;53133;52.862;6.602;2022-08-19T02:40:55;16.00;99.90
66328;DHT22;53133;52.862;6.602;2022-08-19T02:43:22;15.90;99.90
66328;DHT22;53133;52.862;6.602;2022-08-19T02:45:48;15.90;99.90
66328;DHT22;53133;52.862;6.602;2022-08-19T02:48:16;15.90;99.90
66328;DHT22;53133;52.862;6.602;2022-08-19T02:50:43;15.90;99.90
66328;DHT22;53133;52.862;6.602;2022-08-19T02:53:09;15.90;99.90
66328;DHT22;53133;52.862;6.602;2022-08-19T02:55:35;15.90;99.90
66328;DHT22;53133;52.862;6.602;2022-08-19T02:58:01;15.90;99.90
66328;DHT22;53133;52.862;6.602;2022-08-19T03:00:27;15.90;99.90
66328;DHT22;53133;52.862;6.602;2022-08-19T03:02:53;15.80;99.90
66328;DHT22;53133;52.862;6.602;2022-08-19T03:05:18;15.80;99.90
66328;DHT22;53133;52.862;6.602;2022-08-19T03:07:44;15.80;99.90
66328;DHT22;53133;52.862;6.602;2022-08-19T03:10:12;15.80;99.90
66328;DHT22;53133;52.862;6.602;2022-08-19T03:12:38;15.80;99.90
66328;DHT22;53133;52.862;6.602;2022-08-19T03:15:08;15.80;99.90
66328;DHT22;53133;52.862;6.602;2022-08-19T03:17:34;15.80;99.90
66328;DHT22;53133;52.862;6.602;2022-08-19T03:20:01;15.70;99.90
66328;DHT22;53133;52.862;6.602;2022-08-19T03:22:26;15.70;99.90
66328;DHT22;53133;52.862;6.602;2022-08-19T03:24:52;15.70;99.90
66328;DHT22;53133;52.862;6.602;2022-08-19T03:27:18;15.70;99.90
66328;DHT22;53133;52.862;6.602;2022-08-19T03:29:44;15.70;99.90
66328;DHT22;53133;52.862;6.602;2022-08-19T03:32:11;15.70;99.90
66328;DHT22;53133;52.862;6.602;2022-08-19T03:34:38;15.70;99.90
66328;DHT22;53133;52.862;6.602;2022-08-19T03:37:09;15.60;99.90
66328;DHT22;53133;52.862;6.602;2022-08-19T03:39:37;15.60;99.90
66328;DHT22;53133;52.862;6.602;2022-08-19T03:42:03;15.60;99.90
66328;DHT22;53133;52.862;6.602;2022-08-19T03:44:29;15.60;99.90
66328;DHT22;53133;52.862;6.602;2022-08-19T03:46:57;15.60;99.90
66328;DHT22;53133;52.862;6.602;2022-08-19T03:49:25;15.60;99.90
66328;DHT22;53133;52.862;6.602;2022-08-19T03:51:53;15.50;99.90
66328;DHT22;53133;52.862;6.602;2022-08-19T03:54:21;15.50;99.90
66328;DHT22;53133;52.862;6.602;2022-08-19T03:56:49;15.50;99.90
66328;DHT22;53133;52.862;6.602;2022-08-19T03:59:22;15.50;99.90
66328;DHT22;53133;52.862;6.602;2022-08-19T04:01:50;15.50;99.90
66328;DHT22;53133;52.862;6.602;2022-08-19T04:04:16;15.50;99.90
66328;DHT22;53133;52.862;6.602;2022-08-19T04:06:43;15.50;99.90
66328;DHT22;53133;52.862;6.602;2022-08-19T04:09:10;15.40;99.90
66328;DHT22;53133;52.862;6.602;2022-08-19T04:11:39;15.40;99.90
66328;DHT22;53133;52.862;6.602;2022-08-19T04:14:09;15.40;99.90
66328;DHT22;53133;52.862;6.602;2022-08-19T04:16:35;15.30;99.90
66328;DHT22;53133;52.862;6.602;2022-08-19T04:19:03;15.40;99.90
66328;DHT22;53133;52.862;6.602;2022-08-19T04:21:28;15.40;99.90
66328;DHT22;53133;52.862;6.602;2022-08-19T04:23:56;15.40;99.90
66328;DHT22;53133;52.862;6.602;2022-08-19T04:26:27;15.30;99.90
66328;DHT22;53133;52.862;6.602;2022-08-19T04:28:54;15.30;99.90
66328;DHT22;53133;52.862;6.602;2022-08-19T04:31:25;15.30;99.90
66328;DHT22;53133;52.862;6.602;2022-08-19T04:33:58;15.20;99.90
66328;DHT22;53133;52.862;6.602;2022-08-19T04:36:27;15.30;99.90
66328;DHT22;53133;52.862;6.602;2022-08-19T04:38:58;15.20;99.90
66328;DHT22;53133;52.862;6.602;2022-08-19T04:41:24;15.30;99.90
66328;DHT22;53133;52.862;6.602;2022-08-19T04:44:08;15.30;99.90
66328;DHT22;53133;52.862;6.602;2022-08-19T04:46:34;15.30;99.90
66328;DHT22;53133;52.862;6.602;2022-08-19T04:49:01;15.20;99.90
66328;DHT22;53133;52.862;6.602;2022-08-19T04:51:27;15.30;99.90
66328;DHT22;53133;52.862;6.602;2022-08-19T04:53:53;15.20;99.90
66328;DHT22;53133;52.862;6.602;2022-08-19T04:56:20;15.20;99.90
66328;DHT22;53133;52.862;6.602;2022-08-19T04:58:47;15.20;99.90
66328;DHT22;53133;52.862;6.602;2022-08-19T05:01:17;15.20;99.90
66328;DHT22;53133;52.862;6.602;2022-08-19T05:03:43;15.20;99.90
66328;DHT22;53133;52.862;6.602;2022-08-19T05:06:12;15.20;99.90
66328;DHT22;53133;52.862;6.602;2022-08-19T05:08:40;15.20;99.90
66328;DHT22;53133;52.862;6.602;2022-08-19T05:11:17;15.20;99.90
66328;DHT22;53133;52.862;6.602;2022-08-19T05:13:44;15.10;99.90
66328;DHT22;53133;52.862;6.602;2022-08-19T05:16:12;15.10;99.90
66328;DHT22;53133;52.862;6.602;2022-08-19T05:18:39;15.20;99.90
66328;DHT22;53133;52.862;6.602;2022-08-19T05:21:23;15.20;99.90
66328;DHT22;53133;52.862;6.602;2022-08-19T05:24:08;15.20;99.90
66328;DHT22;53133;52.862;6.602;2022-08-19T05:26:35;15.20;99.90
66328;DHT22;53133;52.862;6.602;2022-08-19T05:29:01;15.20;99.90
66328;DHT22;53133;52.862;6.602;2022-08-19T05:31:27;15.20;99.90
66328;DHT22;53133;52.862;6.602;2022-08-19T05:33:53;15.20;99.90
66328;DHT22;53133;52.862;6.602;2022-08-19T05:36:18;15.20;99.90
66328;DHT22;53133;52.862;6.602;2022-08-19T05:38:45;15.20;99.90
66328;DHT22;53133;52.862;6.602;2022-08-19T05:41:13;15.30;99.90
66328;DHT22;53133;52.862;6.602;2022-08-19T05:43:40;15.30;99.90
66328;DHT22;53133;52.862;6.602;2022-08-19T05:46:06;15.40;99.90
66328;DHT22;53133;52.862;6.602;2022-08-19T05:48:33;15.40;99.90
66328;DHT22;53133;52.862;6.602;2022-08-19T05:51:06;15.50;99.90
66328;DHT22;53133;52.862;6.602;2022-08-19T05:53:34;15.50;99.90
66328;DHT22;53133;52.862;6.602;2022-08-19T05:56:08;15.60;99.90
66328;DHT22;53133;52.862;6.602;2022-08-19T05:58:35;15.60;99.90
66328;DHT22;53133;52.862;6.602;2022-08-19T06:01:01;15.70;99.90
66328;DHT22;53133;52.862;6.602;2022-08-19T06:03:31;15.80;99.90
66328;DHT22;53133;52.862;6.602;2022-08-19T06:05:57;15.80;99.90
66328;DHT22;53133;52.862;6.602;2022-08-19T06:08:24;15.90;99.90
66328;DHT22;53133;52.862;6.602;2022-08-19T06:10:50;16.00;99.90
66328;DHT22;53133;52.862;6.602;2022-08-19T06:13:15;16.10;99.90
66328;DHT22;53133;52.862;6.602;2022-08-19T06:15:41;16.20;99.90
66328;DHT22;53133;52.862;6.602;2022-08-19T06:18:09;16.30;99.90
66328;DHT22;53133;52.862;6.602;2022-08-19T06:20:35;16.40;99.90
66328;DHT22;53133;52.862;6.602;2022-08-19T06:23:00;16.50;99.90
66328;DHT22;53133;52.862;6.602;2022-08-19T06:25:26;16.50;99.90
66328;DHT22;53133;52.862;6.602;2022-08-19T06:27:51;16.60;99.90
66328;DHT22;53133;52.862;6.602;2022-08-19T06:30:18;16.60;99.90
66328;DHT22;53133;52.862;6.602;2022-08-19T06:32:43;16.70;99.90
66328;DHT22;53133;52.862;6.602;2022-08-19T06:35:09;16.80;99.90
66328;DHT22;53133;52.862;6.602;2022-08-19T06:37:37;16.80;99.90
66328;DHT22;53133;52.862;6.602;2022-08-19T06:40:03;16.90;99.90
66328;DHT22;53133;52.862;6.602;2022-08-19T06:42:28;16.90;99.90
66328;DHT22;53133;52.862;6.602;2022-08-19T06:44:54;17.00;99.90
66328;DHT22;53133;52.862;6.602;2022-08-19T06:47:21;17.00;99.90
66328;DHT22;53133;52.862;6.602;2022-08-19T06:49:47;17.10;99.90
66328;DHT22;53133;52.862;6.602;2022-08-19T06:52:12;17.20;99.90
66328;DHT22;53133;52.862;6.602;2022-08-19T06:54:40;17.20;99.90
66328;DHT22;53133;52.862;6.602;2022-08-19T06:57:06;17.30;99.90
66328;DHT22;53133;52.862;6.602;2022-08-19T06:59:34;17.40;99.90
66328;DHT22;53133;52.862;6.602;2022-08-19T07:02:04;17.40;99.90
66328;DHT22;53133;52.862;6.602;2022-08-19T07:04:32;17.50;99.90
66328;DHT22;53133;52.862;6.602;2022-08-19T07:07:02;17.50;99.90
66328;DHT22;53133;52.862;6.602;2022-08-19T07:09:28;17.50;99.90
66328;DHT22;53133;52.862;6.602;2022-08-19T07:11:54;17.60;99.90
66328;DHT22;53133;52.862;6.602;2022-08-19T07:14:23;17.70;99.90
66328;DHT22;53133;52.862;6.602;2022-08-19T07:16:51;17.80;99.90
66328;DHT22;53133;52.862;6.602;2022-08-19T07:19:19;17.80;99.90
66328;DHT22;53133;52.862;6.602;2022-08-19T07:21:49;18.00;99.90
66328;DHT22;53133;52.862;6.602;2022-08-19T07:24:17;18.00;99.90
66328;DHT22;53133;52.862;6.602;2022-08-19T07:26:43;18.00;99.90
66328;DHT22;53133;52.862;6.602;2022-08-19T07:29:10;18.10;99.90
66328;DHT22;53133;52.862;6.602;2022-08-19T07:31:36;18.10;99.90
66328;DHT22;53133;52.862;6.602;2022-08-19T07:34:04;18.20;99.90
66328;DHT22;53133;52.862;6.602;2022-08-19T07:36:35;18.30;99.90
66328;DHT22;53133;52.862;6.602;2022-08-19T07:39:08;18.30;99.90
66328;DHT22;53133;52.862;6.602;2022-08-19T07:41:35;18.30;99.90
66328;DHT22;53133;52.862;6.602;2022-08-19T07:44:03;18.40;99.90
66328;DHT22;53133;52.862;6.602;2022-08-19T07:46:33;18.40;99.90
66328;DHT22;53133;52.862;6.602;2022-08-19T07:48:59;18.40;99.90
66328;DHT22;53133;52.862;6.602;2022-08-19T07:51:26;18.50;99.90
66328;DHT22;53133;52.862;6.602;2022-08-19T07:53:52;18.60;99.90
66328;DHT22;53133;52.862;6.602;2022-08-19T07:56:19;18.60;99.90
66328;DHT22;53133;52.862;6.602;2022-08-19T07:58:46;18.60;99.90
66328;DHT22;53133;52.862;6.602;2022-08-19T08:01:15;18.70;99.90
66328;DHT22;53133;52.862;6.602;2022-08-19T08:03:41;18.70;99.90
66328;DHT22;53133;52.862;6.602;2022-08-19T08:06:25;18.80;99.90
66328;DHT22;53133;52.862;6.602;2022-08-19T08:09:10;18.80;99.90
66328;DHT22;53133;52.862;6.602;2022-08-19T08:11:52;18.90;99.90
66328;DHT22;53133;52.862;6.602;2022-08-19T08:14:21;19.00;99.90
66328;DHT22;53133;52.862;6.602;2022-08-19T08:16:48;19.00;99.90
66328;DHT22;53133;52.862;6.602;2022-08-19T08:19:18;19.10;99.90
66328;DHT22;53133;52.862;6.602;2022-08-19T08:21:44;19.10;99.90
66328;DHT22;53133;52.862;6.602;2022-08-19T08:24:10;19.20;99.90
66328;DHT22;53133;52.862;6.602;2022-08-19T08:26:36;19.30;99.90
66328;DHT22;53133;52.862;6.602;2022-08-19T08:29:02;19.30;99.90
66328;DHT22;53133;52.862;6.602;2022-08-19T08:31:28;19.40;99.90
66328;DHT22;53133;52.862;6.602;2022-08-19T08:33:54;19.40;99.90
66328;DHT22;53133;52.862;6.602;2022-08-19T08:36:20;19.50;99.90
66328;DHT22;53133;52.862;6.602;2022-08-19T08:38:46;19.50;99.90
66328;DHT22;53133;52.862;6.602;2022-08-19T08:43:39;19.70;99.90
66328;DHT22;53133;52.862;6.602;2022-08-19T08:48:53;19.90;99.90
66328;DHT22;53133;52.862;6.602;2022-08-19T08:51:25;19.90;99.90
66328;DHT22;53133;52.862;6.602;2022-08-19T08:53:53;19.90;99.90
66328;DHT22;53133;52.862;6.602;2022-08-19T08:56:19;20.00;99.90
66328;DHT22;53133;52.862;6.602;2022-08-19T08:58:48;20.00;99.90
66328;DHT22;53133;52.862;6.602;2022-08-19T09:01:16;20.00;99.90
66328;DHT22;53133;52.862;6.602;2022-08-19T09:03:43;20.00;99.90
66328;DHT22;53133;52.862;6.602;2022-08-19T09:06:12;20.10;99.90
66328;DHT22;53133;52.862;6.602;2022-08-19T09:17:11;20.50;99.90
66328;DHT22;53133;52.862;6.602;2022-08-19T09:20:14;20.60;99.90
66328;DHT22;53133;52.862;6.602;2022-08-19T09:22:41;20.70;99.90
66328;DHT22;53133;52.862;6.602;2022-08-19T09:25:11;20.70;99.90
66328;DHT22;53133;52.862;6.602;2022-08-19T09:27:39;20.80;99.90
66328;DHT22;53133;52.862;6.602;2022-08-19T09:30:06;20.80;99.90
66328;DHT22;53133;52.862;6.602;2022-08-19T09:32:33;20.90;99.90
66328;DHT22;53133;52.862;6.602;2022-08-19T09:34:58;20.80;99.90
66328;DHT22;53133;52.862;6.602;2022-08-19T09:37:25;20.90;99.90
66328;DHT22;53133;52.862;6.602;2022-08-19T09:39:51;21.00;99.90
66328;DHT22;53133;52.862;6.602;2022-08-19T09:42:17;21.00;99.90
66328;DHT22;53133;52.862;6.602;2022-08-19T09:44:44;21.00;99.90
66328;DHT22;53133;52.862;6.602;2022-08-19T09:47:12;21.10;99.90
66328;DHT22;53133;52.862;6.602;2022-08-19T09:49:38;21.10;99.70
66328;DHT22;53133;52.862;6.602;2022-08-19T09:52:08;21.20;99.60
66328;DHT22;53133;52.862;6.602;2022-08-19T09:54:34;21.20;99.60
66328;DHT22;53133;52.862;6.602;2022-08-19T09:57:00;21.20;99.50
66328;DHT22;53133;52.862;6.602;2022-08-19T09:59:26;21.30;99.30
66328;DHT22;53133;52.862;6.602;2022-08-19T10:01:52;21.40;99.20
66328;DHT22;53133;52.862;6.602;2022-08-19T10:04:18;21.40;99.30
66328;DHT22;53133;52.862;6.602;2022-08-19T10:06:43;21.50;99.10
66328;DHT22;53133;52.862;6.602;2022-08-19T10:09:10;21.60;98.80
66328;DHT22;53133;52.862;6.602;2022-08-19T10:11:39;21.60;97.90
66328;DHT22;53133;52.862;6.602;2022-08-19T10:14:06;21.70;97.70
66328;DHT22;53133;52.862;6.602;2022-08-19T10:16:32;21.80;97.80
66328;DHT22;53133;52.862;6.602;2022-08-19T10:18:58;21.80;97.50
66328;DHT22;53133;52.862;6.602;2022-08-19T10:21:29;21.80;97.50
66328;DHT22;53133;52.862;6.602;2022-08-19T10:23:58;21.90;97.30
66328;DHT22;53133;52.862;6.602;2022-08-19T10:26:28;22.00;96.70
66328;DHT22;53133;52.862;6.602;2022-08-19T10:28:55;22.10;96.70
66328;DHT22;53133;52.862;6.602;2022-08-19T10:31:24;22.10;96.90
66328;DHT22;53133;52.862;6.602;2022-08-19T10:33:51;22.10;96.30
66328;DHT22;53133;52.862;6.602;2022-08-19T10:36:30;22.20;96.20
66328;DHT22;53133;52.862;6.602;2022-08-19T10:38:59;22.20;96.00
66328;DHT22;53133;52.862;6.602;2022-08-19T10:41:29;22.30;95.80
66328;DHT22;53133;52.862;6.602;2022-08-19T10:43:58;22.40;95.30
66328;DHT22;53133;52.862;6.602;2022-08-19T10:46:26;22.40;95.00
66328;DHT22;53133;52.862;6.602;2022-08-19T10:48:52;22.40;94.40
66328;DHT22;53133;52.862;6.602;2022-08-19T10:51:19;22.40;94.10
66328;DHT22;53133;52.862;6.602;2022-08-19T10:54:03;22.40;93.70
66328;DHT22;53133;52.862;6.602;2022-08-19T10:56:29;22.50;93.60
66328;DHT22;53133;52.862;6.602;2022-08-19T10:59:15;22.50;94.00
66328;DHT22;53133;52.862;6.602;2022-08-19T11:01:42;22.60;94.00
66328;DHT22;53133;52.862;6.602;2022-08-19T11:04:08;22.60;93.60
66328;DHT22;53133;52.862;6.602;2022-08-19T11:06:37;22.80;93.30
66328;DHT22;53133;52.862;6.602;2022-08-19T11:09:04;22.90;93.80
66328;DHT22;53133;52.862;6.602;2022-08-19T11:11:31;22.90;93.90
66328;DHT22;53133;52.862;6.602;2022-08-19T11:13:58;23.00;93.90
66328;DHT22;53133;52.862;6.602;2022-08-19T11:16:25;23.10;93.90
66328;DHT22;53133;52.862;6.602;2022-08-19T11:18:54;23.10;93.90
66328;DHT22;53133;52.862;6.602;2022-08-19T11:21:29;23.20;93.50
66328;DHT22;53133;52.862;6.602;2022-08-19T11:23:59;23.20;93.30
66328;DHT22;53133;52.862;6.602;2022-08-19T11:26:27;23.30;93.50
66328;DHT22;53133;52.862;6.602;2022-08-19T11:28:53;23.30;93.30
66328;DHT22;53133;52.862;6.602;2022-08-19T11:31:27;23.30;93.20
66328;DHT22;53133;52.862;6.602;2022-08-19T11:33:53;23.30;93.30
66328;DHT22;53133;52.862;6.602;2022-08-19T11:36:20;23.30;93.40
66328;DHT22;53133;52.862;6.602;2022-08-19T11:38:47;23.40;93.00
66328;DHT22;53133;52.862;6.602;2022-08-19T11:41:15;23.40;93.00
66328;DHT22;53133;52.862;6.602;2022-08-19T11:43:40;23.40;93.30
66328;DHT22;53133;52.862;6.602;2022-08-19T11:46:12;23.50;93.00
66328;DHT22;53133;52.862;6.602;2022-08-19T11:48:38;23.50;92.80
66328;DHT22;53133;52.862;6.602;2022-08-19T11:51:07;23.60;93.20
66328;DHT22;53133;52.862;6.602;2022-08-19T11:53:35;23.60;92.90
66328;DHT22;53133;52.862;6.602;2022-08-19T11:56:01;23.60;93.20
66328;DHT22;53133;52.862;6.602;2022-08-19T11:58:27;23.60;93.60
66328;DHT22;53133;52.862;6.602;2022-08-19T12:00:54;23.60;93.80
66328;DHT22;53133;52.862;6.602;2022-08-19T12:03:21;23.60;93.60
66328;DHT22;53133;52.862;6.602;2022-08-19T12:05:47;23.70;93.50
66328;DHT22;53133;52.862;6.602;2022-08-19T12:08:13;23.70;93.30
66328;DHT22;53133;52.862;6.602;2022-08-19T12:10:39;23.70;92.70
66328;DHT22;53133;52.862;6.602;2022-08-19T12:13:07;23.80;92.40
66328;DHT22;53133;52.862;6.602;2022-08-19T12:15:37;23.90;92.50
66328;DHT22;53133;52.862;6.602;2022-08-19T12:18:04;24.00;92.50
66328;DHT22;53133;52.862;6.602;2022-08-19T12:20:30;24.10;92.40
66328;DHT22;53133;52.862;6.602;2022-08-19T12:22:55;24.10;91.90
66328;DHT22;53133;52.862;6.602;2022-08-19T12:25:21;24.10;91.50
66328;DHT22;53133;52.862;6.602;2022-08-19T12:27:47;24.10;91.40
66328;DHT22;53133;52.862;6.602;2022-08-19T12:30:14;24.20;91.70
66328;DHT22;53133;52.862;6.602;2022-08-19T12:32:39;24.20;91.40
66328;DHT22;53133;52.862;6.602;2022-08-19T12:35:07;24.20;91.30
66328;DHT22;53133;52.862;6.602;2022-08-19T12:37:34;24.20;91.50
66328;DHT22;53133;52.862;6.602;2022-08-19T12:39:59;24.30;91.40
66328;DHT22;53133;52.862;6.602;2022-08-19T12:42:25;24.30;90.60
66328;DHT22;53133;52.862;6.602;2022-08-19T12:44:51;24.40;90.50
66328;DHT22;53133;52.862;6.602;2022-08-19T12:47:18;24.50;90.70
66328;DHT22;53133;52.862;6.602;2022-08-19T12:49:44;24.50;90.50
66328;DHT22;53133;52.862;6.602;2022-08-19T12:52:10;24.60;89.90
66328;DHT22;53133;52.862;6.602;2022-08-19T12:54:37;24.70;89.60
66328;DHT22;53133;52.862;6.602;2022-08-19T12:57:07;24.70;88.50
66328;DHT22;53133;52.862;6.602;2022-08-19T12:59:38;24.80;86.80
66328;DHT22;53133;52.862;6.602;2022-08-19T13:02:05;24.80;87.70
66328;DHT22;53133;52.862;6.602;2022-08-19T13:04:32;24.80;88.30
66328;DHT22;53133;52.862;6.602;2022-08-19T13:07:00;24.80;87.10
66328;DHT22;53133;52.862;6.602;2022-08-19T13:09:25;24.80;84.00
66328;DHT22;53133;52.862;6.602;2022-08-19T13:11:51;24.90;84.60
66328;DHT22;53133;52.862;6.602;2022-08-19T13:14:17;24.80;85.80
66328;DHT22;53133;52.862;6.602;2022-08-19T13:16:42;24.90;86.40
66328;DHT22;53133;52.862;6.602;2022-08-19T13:19:08;24.90;85.60
66328;DHT22;53133;52.862;6.602;2022-08-19T13:21:34;24.90;85.50
66328;DHT22;53133;52.862;6.602;2022-08-19T13:23:59;24.90;84.80
66328;DHT22;53133;52.862;6.602;2022-08-19T13:26:25;25.00;85.70
66328;DHT22;53133;52.862;6.602;2022-08-19T13:28:51;25.10;86.30
66328;DHT22;53133;52.862;6.602;2022-08-19T13:31:36;25.20;85.90
66328;DHT22;53133;52.862;6.602;2022-08-19T13:34:35;25.20;85.70
66328;DHT22;53133;52.862;6.602;2022-08-19T13:37:03;25.20;85.50
66328;DHT22;53133;52.862;6.602;2022-08-19T13:39:33;25.20;85.50
66328;DHT22;53133;52.862;6.602;2022-08-19T13:41:59;25.20;85.10
66328;DHT22;53133;52.862;6.602;2022-08-19T13:44:27;25.20;85.90
66328;DHT22;53133;52.862;6.602;2022-08-19T13:46:59;25.30;85.50
66328;DHT22;53133;52.862;6.602;2022-08-19T13:49:27;25.30;86.00
66328;DHT22;53133;52.862;6.602;2022-08-19T13:51:55;25.30;87.10
66328;DHT22;53133;52.862;6.602;2022-08-19T13:54:20;25.30;86.30
66328;DHT22;53133;52.862;6.602;2022-08-19T13:56:46;25.30;86.50
66328;DHT22;53133;52.862;6.602;2022-08-19T13:59:12;25.30;87.10
66328;DHT22;53133;52.862;6.602;2022-08-19T14:01:38;25.30;88.30
66328;DHT22;53133;52.862;6.602;2022-08-19T14:04:04;25.20;88.80
66328;DHT22;53133;52.862;6.602;2022-08-19T14:06:31;25.20;88.90
66328;DHT22;53133;52.862;6.602;2022-08-19T14:08:57;25.10;89.80
66328;DHT22;53133;52.862;6.602;2022-08-19T14:11:22;25.10;90.00
66328;DHT22;53133;52.862;6.602;2022-08-19T14:13:49;25.00;90.20
66328;DHT22;53133;52.862;6.602;2022-08-19T14:16:16;25.00;90.10
66328;DHT22;53133;52.862;6.602;2022-08-19T14:18:42;25.00;90.10
66328;DHT22;53133;52.862;6.602;2022-08-19T14:21:21;24.90;90.20
66328;DHT22;53133;52.862;6.602;2022-08-19T14:23:47;24.90;90.30
66328;DHT22;53133;52.862;6.602;2022-08-19T14:26:16;24.90;90.30
66328;DHT22;53133;52.862;6.602;2022-08-19T14:28:43;24.80;90.40
66328;DHT22;53133;52.862;6.602;2022-08-19T14:31:13;24.80;90.80
66328;DHT22;53133;52.862;6.602;2022-08-19T14:33:42;24.80;91.10
66328;DHT22;53133;52.862;6.602;2022-08-19T14:36:07;24.70;90.80
66328;DHT22;53133;52.862;6.602;2022-08-19T14:38:33;24.70;90.90
66328;DHT22;53133;52.862;6.602;2022-08-19T14:41:25;24.70;90.50
66328;DHT22;53133;52.862;6.602;2022-08-19T14:43:52;24.90;90.40
66328;DHT22;53133;52.862;6.602;2022-08-19T14:46:21;24.90;90.90
66328;DHT22;53133;52.862;6.602;2022-08-19T14:48:48;24.90;91.20
66328;DHT22;53133;52.862;6.602;2022-08-19T14:51:17;24.90;91.50
66328;DHT22;53133;52.862;6.602;2022-08-19T14:53:43;24.80;91.80
66328;DHT22;53133;52.862;6.602;2022-08-19T14:56:11;24.80;92.10
66328;DHT22;53133;52.862;6.602;2022-08-19T14:58:37;24.80;92.40
66328;DHT22;53133;52.862;6.602;2022-08-19T15:01:03;24.80;92.40
66328;DHT22;53133;52.862;6.602;2022-08-19T15:03:30;24.80;92.20
66328;DHT22;53133;52.862;6.602;2022-08-19T15:05:57;24.70;92.30
66328;DHT22;53133;52.862;6.602;2022-08-19T15:08:24;24.70;92.50
66328;DHT22;53133;52.862;6.602;2022-08-19T15:10:51;24.70;92.50
66328;DHT22;53133;52.862;6.602;2022-08-19T15:13:17;24.70;92.70
66328;DHT22;53133;52.862;6.602;2022-08-19T15:15:42;24.60;92.60
66328;DHT22;53133;52.862;6.602;2022-08-19T15:18:08;24.60;92.70
66328;DHT22;53133;52.862;6.602;2022-08-19T15:20:34;24.60;93.00
66328;DHT22;53133;52.862;6.602;2022-08-19T15:23:00;24.50;92.80
66328;DHT22;53133;52.862;6.602;2022-08-19T15:25:26;24.40;93.10
66328;DHT22;53133;52.862;6.602;2022-08-19T15:27:52;24.40;93.10
66328;DHT22;53133;52.862;6.602;2022-08-19T15:30:24;24.30;93.20
66328;DHT22;53133;52.862;6.602;2022-08-19T15:32:50;24.20;93.20
66328;DHT22;53133;52.862;6.602;2022-08-19T15:35:18;24.20;93.30
66328;DHT22;53133;52.862;6.602;2022-08-19T15:37:47;24.20;93.40
66328;DHT22;53133;52.862;6.602;2022-08-19T15:40:13;24.20;93.50
66328;DHT22;53133;52.862;6.602;2022-08-19T15:42:39;24.20;93.70
66328;DHT22;53133;52.862;6.602;2022-08-19T15:45:08;24.20;93.80
66328;DHT22;53133;52.862;6.602;2022-08-19T15:47:35;24.20;93.80
66328;DHT22;53133;52.862;6.602;2022-08-19T15:50:08;24.20;93.50